EST,Max TemperatureF,Mean TemperatureF,Min TemperatureF,Max Dew PointF,MeanDew PointF,Min DewpointF,Max Humidity, Mean Humidity, Min Humidity, Max Sea Level PressureIn, Mean Sea Level PressureIn, Min Sea Level PressureIn, Max VisibilityMiles, Mean VisibilityMiles, Min VisibilityMiles, Max Wind SpeedMPH, Mean Wind SpeedMPH, Max Gust SpeedMPH,PrecipitationIn, CloudCover, Events, WindDirDegrees
2013-2-1,37,29,19,30,9,1,81,46,30,30.38,30.21,29.90,10,10,10,21,6,32,0.00,1,,293
2013-2-2,37,27,17,28,14,10,87,59,38,30.38,30.23,30.05,10,10,10,13,2,18,0.00,4,,212
2013-2-3,44,37,30,30,25,19,93,64,43,30.03,29.97,29.89,10,10,10,17,4,31,0.00,5,,272
2013-2-4,46,36,26,27,21,16,80,57,37,30.15,30.06,30.01,10,10,10,12,4,17,0.00,0,,226
2013-2-5,55,42,30,34,29,25,93,67,44,30.01,29.97,29.95,10,10,10,20,2,28,0.00,3,,294
2013-2-6,59,44,30,32,25,10,93,55,17,30.30,30.16,30.01,10,10,10,8,2,,0.00,0,,333
2013-2-7,39,36,32,36,31,23,100,85,56,30.36,30.25,30.09,10,7,2,7,3,,0.39,5,Rain,62
2013-2-8,53,44,35,43,34,25,100,79,38,30.14,30.00,29.91,10,7,1,16,4,29,0.07,5,Rain,295
2013-2-9,53,42,30,25,18,12,75,44,21,30.38,30.27,30.13,10,10,10,12,4,17,0.00,0,,233
2013-2-10,51,40,28,37,26,19,100,64,30,30.47,30.36,30.20,10,10,7,12,2,9,0.09,3,Rain,175
2013-2-11,55,46,37,52,40,28,100,83,38,30.21,30.07,29.99,10,7,2,12,2,20,0.10,5,Rain,243
2013-2-12,57,49,41,39,25,18,93,43,23,30.14,30.05,29.97,10,10,10,15,5,21,0.03,2,Rain,280
2013-2-13,44,40,37,43,38,30,100,92,75,29.98,29.82,29.68,10,7,1,10,2,20,0.20,7,Rain,278
2013-2-14,51,40,30,32,29,27,93,68,41,30.09,30.01,29.90,10,10,10,9,3,,0.00,1,,215
2013-2-15,59,42,26,37,31,27,100,71,36,30.12,30.05,29.96,10,10,7,13,3,20,0.00,3,Rain,271
2013-2-16,37,32,26,28,21,12,87,62,41,30.03,29.96,29.87,10,10,5,13,4,24,0.01,7,Snow,332
2013-2-17,35,29,23,12,7,3,59,41,28,30.26,30.12,30.00,10,10,10,16,9,26,0.00,3,,295
2013-2-18,51,34,17,27,18,9,86,51,32,30.39,30.30,30.20,10,10,10,10,2,16,0.00,0,,186
2013-2-19,51,42,32,39,27,10,100,64,27,30.20,30.03,29.87,10,10,2,23,6,31,0.05,4,Rain-Snow,248
2013-2-20,50,38,26,16,8,1,55,32,15,30.16,30.09,30.04,10,10,10,12,5,21,0.00,0,,313
2013-2-21,55,39,23,28,15,7,80,39,15,30.30,30.18,30.12,10,10,10,10,3,,0.00,1,Rain,94
2013-2-22,37,34,32,34,32,30,100,99,75,30.33,30.26,30.15,7,3,1,6,3,,0.33,8,Rain-Snow,74
2013-2-23,46,39,32,41,36,32,100,95,81,30.18,29.99,29.86,10,6,2,6,1,,0.17,6,Rain,62
2013-2-24,59,46,32,37,29,21,100,56,25,30.08,29.97,29.86,10,8,0,14,5,22,0.00,1,Fog,309
2013-2-25,41,36,32,27,24,21,70,65,52,30.24,30.15,30.07,10,10,10,10,5,,0.00,2,,71
2013-2-26,37,34,32,37,32,23,100,94,65,30.16,29.85,29.63,10,3,0,15,6,22,0.98,8,Fog-Rain-Snow,57
2013-2-27,53,43,33,36,33,28,100,70,44,29.81,29.75,29.67,10,8,0,20,5,26,0.01,4,Fog-Rain,238
2013-2-28,42,38,35,30,26,23,75,63,46,29.92,29.83,29.75,10,10,10,13,8,22,0.00,7,,285